Terminal Aerodrome Forecast
Issued by NWS Goodland, KS

Home | Current Version | Previous Version | Text Only | Print | Product List | Glossary On
Versions: 1 2 3 4 5 6 7 8 9 10 11 12 13 14 15
113
FTUS43 KGLD 241209 AAA
TAFGLD
TAF AMD
KGLD 241209Z 2412/2512 31011KT 1/2SM FZFG BKN003
     FM241400 31012KT 3SM BR BKN005
     FM241600 34015G25KT P6SM BKN010
     FM241900 35020G30KT P6SM BKN035=

USA.gov is the U.S. government's official web portal to all federal, state and local government web resources and services.